sensor_id;sensor_type;location;lat;lon;timestamp;P1;P2;P0
55518;PMS5003;41724;51.176;-0.708;2024-03-07T00:00:37;30;27;
55518;PMS5003;41724;51.176;-0.708;2024-03-07T00:03:05;25;24;
55518;PMS5003;41724;51.176;-0.708;2024-03-07T00:05:32;21;20;
55518;PMS5003;41724;51.176;-0.708;2024-03-07T00:07:59;39;36;
55518;PMS5003;41724;51.176;-0.708;2024-03-07T00:10:26;38;36;
55518;PMS5003;41724;51.176;-0.708;2024-03-07T00:12:54;45;35;
55518;PMS5003;41724;51.176;-0.708;2024-03-07T00:15:21;32;31;
55518;PMS5003;41724;51.176;-0.708;2024-03-07T00:17:48;38;37;
55518;PMS5003;41724;51.176;-0.708;2024-03-07T00:20:15;33;31;
55518;PMS5003;41724;51.176;-0.708;2024-03-07T00:22:43;37;36;
55518;PMS5003;41724;51.176;-0.708;2024-03-07T00:25:10;43;41;
55518;PMS5003;41724;51.176;-0.708;2024-03-07T00:27:37;43;40;
55518;PMS5003;41724;51.176;-0.708;2024-03-07T00:30:05;43;42;
55518;PMS5003;41724;51.176;-0.708;2024-03-07T00:32:33;37;35;
55518;PMS5003;41724;51.176;-0.708;2024-03-07T00:35:00;41;38;
55518;PMS5003;41724;51.176;-0.708;2024-03-07T00:37:28;40;39;
55518;PMS5003;41724;51.176;-0.708;2024-03-07T00:39:55;44;41;
55518;PMS5003;41724;51.176;-0.708;2024-03-07T00:42:22;33;31;
55518;PMS5003;41724;51.176;-0.708;2024-03-07T00:44:49;41;37;
55518;PMS5003;41724;51.176;-0.708;2024-03-07T00:47:16;33;32;
55518;PMS5003;41724;51.176;-0.708;2024-03-07T00:49:43;43;40;
55518;PMS5003;41724;51.176;-0.708;2024-03-07T00:52:10;48;45;
55518;PMS5003;41724;51.176;-0.708;2024-03-07T00:54:37;44;41;
55518;PMS5003;41724;51.176;-0.708;2024-03-07T00:57:04;51;47;
55518;PMS5003;41724;51.176;-0.708;2024-03-07T00:59:31;42;40;
55518;PMS5003;41724;51.176;-0.708;2024-03-07T01:01:58;35;34;
55518;PMS5003;41724;51.176;-0.708;2024-03-07T01:04:25;35;31;
55518;PMS5003;41724;51.176;-0.708;2024-03-07T01:06:52;39;37;
55518;PMS5003;41724;51.176;-0.708;2024-03-07T01:09:19;31;29;
55518;PMS5003;41724;51.176;-0.708;2024-03-07T01:11:46;33;30;
55518;PMS5003;41724;51.176;-0.708;2024-03-07T01:14:13;29;27;
55518;PMS5003;41724;51.176;-0.708;2024-03-07T01:16:40;30;29;
55518;PMS5003;41724;51.176;-0.708;2024-03-07T01:19:07;33;30;
55518;PMS5003;41724;51.176;-0.708;2024-03-07T01:21:34;32;30;
55518;PMS5003;41724;51.176;-0.708;2024-03-07T01:24:01;27;27;
55518;PMS5003;41724;51.176;-0.708;2024-03-07T01:26:29;31;29;
55518;PMS5003;41724;51.176;-0.708;2024-03-07T01:28:56;24;22;
55518;PMS5003;41724;51.176;-0.708;2024-03-07T01:31:23;32;29;
55518;PMS5003;41724;51.176;-0.708;2024-03-07T01:33:50;25;23;
55518;PMS5003;41724;51.176;-0.708;2024-03-07T01:36:18;29;28;
55518;PMS5003;41724;51.176;-0.708;2024-03-07T01:38:46;26;26;
55518;PMS5003;41724;51.176;-0.708;2024-03-07T01:41:13;26;25;
55518;PMS5003;41724;51.176;-0.708;2024-03-07T01:43:41;31;27;
55518;PMS5003;41724;51.176;-0.708;2024-03-07T01:46:08;22;22;
55518;PMS5003;41724;51.176;-0.708;2024-03-07T01:48:35;29;28;
55518;PMS5003;41724;51.176;-0.708;2024-03-07T01:51:04;27;25;
55518;PMS5003;41724;51.176;-0.708;2024-03-07T01:53:32;30;29;
55518;PMS5003;41724;51.176;-0.708;2024-03-07T01:56:00;23;23;
55518;PMS5003;41724;51.176;-0.708;2024-03-07T01:58:29;24;22;
55518;PMS5003;41724;51.176;-0.708;2024-03-07T02:00:57;28;28;
55518;PMS5003;41724;51.176;-0.708;2024-03-07T02:08:47;27;25;
55518;PMS5003;41724;51.176;-0.708;2024-03-07T02:11:14;34;32;
55518;PMS5003;41724;51.176;-0.708;2024-03-07T02:13:42;32;28;
55518;PMS5003;41724;51.176;-0.708;2024-03-07T02:16:09;31;30;
55518;PMS5003;41724;51.176;-0.708;2024-03-07T02:23:50;33;29;
55518;PMS5003;41724;51.176;-0.708;2024-03-07T02:35:10;27;27;
55518;PMS5003;41724;51.176;-0.708;2024-03-07T02:37:36;33;31;
55518;PMS5003;41724;51.176;-0.708;2024-03-07T02:40:03;29;27;
55518;PMS5003;41724;51.176;-0.708;2024-03-07T02:42:31;34;33;
55518;PMS5003;41724;51.176;-0.708;2024-03-07T02:44:57;34;32;
55518;PMS5003;41724;51.176;-0.708;2024-03-07T02:47:24;35;30;
55518;PMS5003;41724;51.176;-0.708;2024-03-07T02:55:32;36;32;
55518;PMS5003;41724;51.176;-0.708;2024-03-07T02:57:59;33;32;
55518;PMS5003;41724;51.176;-0.708;2024-03-07T03:00:26;27;27;
55518;PMS5003;41724;51.176;-0.708;2024-03-07T03:02:53;26;23;
55518;PMS5003;41724;51.176;-0.708;2024-03-07T03:05:20;24;23;
55518;PMS5003;41724;51.176;-0.708;2024-03-07T03:07:48;32;30;
55518;PMS5003;41724;51.176;-0.708;2024-03-07T03:10:15;29;24;
55518;PMS5003;41724;51.176;-0.708;2024-03-07T03:12:42;35;30;
55518;PMS5003;41724;51.176;-0.708;2024-03-07T03:15:09;29;27;
55518;PMS5003;41724;51.176;-0.708;2024-03-07T03:17:37;30;28;
55518;PMS5003;41724;51.176;-0.708;2024-03-07T03:20:04;31;29;
55518;PMS5003;41724;51.176;-0.708;2024-03-07T03:22:32;38;37;
55518;PMS5003;41724;51.176;-0.708;2024-03-07T03:24:59;29;27;
55518;PMS5003;41724;51.176;-0.708;2024-03-07T03:27:26;33;31;
55518;PMS5003;41724;51.176;-0.708;2024-03-07T03:29:53;30;28;
55518;PMS5003;41724;51.176;-0.708;2024-03-07T03:32:19;28;26;
55518;PMS5003;41724;51.176;-0.708;2024-03-07T03:34:47;24;23;
55518;PMS5003;41724;51.176;-0.708;2024-03-07T03:37:14;27;24;
55518;PMS5003;41724;51.176;-0.708;2024-03-07T03:39:41;33;29;
55518;PMS5003;41724;51.176;-0.708;2024-03-07T03:42:08;32;30;
55518;PMS5003;41724;51.176;-0.708;2024-03-07T03:44:35;24;23;
55518;PMS5003;41724;51.176;-0.708;2024-03-07T03:47:02;29;25;
55518;PMS5003;41724;51.176;-0.708;2024-03-07T03:49:29;36;33;
55518;PMS5003;41724;51.176;-0.708;2024-03-07T03:51:56;28;28;
55518;PMS5003;41724;51.176;-0.708;2024-03-07T03:54:24;38;33;
55518;PMS5003;41724;51.176;-0.708;2024-03-07T03:56:51;29;28;
55518;PMS5003;41724;51.176;-0.708;2024-03-07T03:59:18;30;30;
55518;PMS5003;41724;51.176;-0.708;2024-03-07T04:01:45;39;35;
55518;PMS5003;41724;51.176;-0.708;2024-03-07T04:04:12;34;32;
55518;PMS5003;41724;51.176;-0.708;2024-03-07T04:06:39;39;37;
55518;PMS5003;41724;51.176;-0.708;2024-03-07T04:09:06;30;27;
55518;PMS5003;41724;51.176;-0.708;2024-03-07T04:11:33;31;29;
55518;PMS5003;41724;51.176;-0.708;2024-03-07T04:14:00;33;30;
55518;PMS5003;41724;51.176;-0.708;2024-03-07T04:16:27;31;27;
55518;PMS5003;41724;51.176;-0.708;2024-03-07T04:18:55;31;28;
55518;PMS5003;41724;51.176;-0.708;2024-03-07T04:21:22;34;32;
55518;PMS5003;41724;51.176;-0.708;2024-03-07T04:23:49;27;26;
55518;PMS5003;41724;51.176;-0.708;2024-03-07T04:26:16;40;32;
55518;PMS5003;41724;51.176;-0.708;2024-03-07T04:28:44;29;29;
55518;PMS5003;41724;51.176;-0.708;2024-03-07T04:31:10;31;27;
55518;PMS5003;41724;51.176;-0.708;2024-03-07T04:33:38;35;32;
55518;PMS5003;41724;51.176;-0.708;2024-03-07T04:36:05;39;34;
55518;PMS5003;41724;51.176;-0.708;2024-03-07T04:38:32;37;34;
55518;PMS5003;41724;51.176;-0.708;2024-03-07T04:40:59;39;38;
55518;PMS5003;41724;51.176;-0.708;2024-03-07T04:43:26;40;38;
55518;PMS5003;41724;51.176;-0.708;2024-03-07T04:45:53;38;37;
55518;PMS5003;41724;51.176;-0.708;2024-03-07T04:48:20;43;36;
55518;PMS5003;41724;51.176;-0.708;2024-03-07T04:50:46;43;40;
55518;PMS5003;41724;51.176;-0.708;2024-03-07T04:53:13;45;40;
55518;PMS5003;41724;51.176;-0.708;2024-03-07T04:55:40;44;40;
55518;PMS5003;41724;51.176;-0.708;2024-03-07T04:58:06;39;37;
55518;PMS5003;41724;51.176;-0.708;2024-03-07T05:00:34;35;30;
55518;PMS5003;41724;51.176;-0.708;2024-03-07T05:03:00;51;39;
55518;PMS5003;41724;51.176;-0.708;2024-03-07T05:05:28;43;40;
55518;PMS5003;41724;51.176;-0.708;2024-03-07T05:07:55;35;31;
55518;PMS5003;41724;51.176;-0.708;2024-03-07T05:10:22;45;42;
55518;PMS5003;41724;51.176;-0.708;2024-03-07T05:12:49;39;38;
55518;PMS5003;41724;51.176;-0.708;2024-03-07T05:15:16;34;31;
55518;PMS5003;41724;51.176;-0.708;2024-03-07T05:17:43;40;36;
55518;PMS5003;41724;51.176;-0.708;2024-03-07T05:20:10;44;38;
55518;PMS5003;41724;51.176;-0.708;2024-03-07T05:22:38;41;40;
55518;PMS5003;41724;51.176;-0.708;2024-03-07T05:25:06;44;40;
55518;PMS5003;41724;51.176;-0.708;2024-03-07T05:27:33;46;43;
55518;PMS5003;41724;51.176;-0.708;2024-03-07T05:30:00;46;43;
55518;PMS5003;41724;51.176;-0.708;2024-03-07T05:32:28;38;34;
55518;PMS5003;41724;51.176;-0.708;2024-03-07T05:34:55;46;42;
55518;PMS5003;41724;51.176;-0.708;2024-03-07T05:37:22;54;46;
55518;PMS5003;41724;51.176;-0.708;2024-03-07T05:39:49;42;41;
55518;PMS5003;41724;51.176;-0.708;2024-03-07T05:42:17;38;35;
55518;PMS5003;41724;51.176;-0.708;2024-03-07T05:44:44;43;40;
55518;PMS5003;41724;51.176;-0.708;2024-03-07T05:47:12;43;38;
55518;PMS5003;41724;51.176;-0.708;2024-03-07T05:49:39;49;45;
55518;PMS5003;41724;51.176;-0.708;2024-03-07T05:52:06;40;39;
55518;PMS5003;41724;51.176;-0.708;2024-03-07T05:54:33;37;36;
55518;PMS5003;41724;51.176;-0.708;2024-03-07T05:57:01;49;48;
55518;PMS5003;41724;51.176;-0.708;2024-03-07T05:59:28;49;45;
55518;PMS5003;41724;51.176;-0.708;2024-03-07T06:01:55;45;40;
55518;PMS5003;41724;51.176;-0.708;2024-03-07T06:04:22;46;40;
55518;PMS5003;41724;51.176;-0.708;2024-03-07T06:06:50;53;50;
55518;PMS5003;41724;51.176;-0.708;2024-03-07T06:09:16;51;47;
55518;PMS5003;41724;51.176;-0.708;2024-03-07T06:11:44;57;49;
55518;PMS5003;41724;51.176;-0.708;2024-03-07T06:14:11;47;44;
55518;PMS5003;41724;51.176;-0.708;2024-03-07T06:16:39;44;41;
55518;PMS5003;41724;51.176;-0.708;2024-03-07T06:19:07;48;44;
55518;PMS5003;41724;51.176;-0.708;2024-03-07T06:21:36;52;46;
55518;PMS5003;41724;51.176;-0.708;2024-03-07T06:24:04;54;46;
55518;PMS5003;41724;51.176;-0.708;2024-03-07T06:26:31;56;48;
55518;PMS5003;41724;51.176;-0.708;2024-03-07T06:28:59;48;40;
55518;PMS5003;41724;51.176;-0.708;2024-03-07T06:31:27;49;44;
55518;PMS5003;41724;51.176;-0.708;2024-03-07T06:33:53;56;49;
55518;PMS5003;41724;51.176;-0.708;2024-03-07T06:36:20;56;52;
55518;PMS5003;41724;51.176;-0.708;2024-03-07T06:38:47;53;49;
55518;PMS5003;41724;51.176;-0.708;2024-03-07T06:41:15;59;52;
55518;PMS5003;41724;51.176;-0.708;2024-03-07T06:43:42;66;57;
55518;PMS5003;41724;51.176;-0.708;2024-03-07T06:46:09;53;47;
55518;PMS5003;41724;51.176;-0.708;2024-03-07T06:48:36;40;38;
55518;PMS5003;41724;51.176;-0.708;2024-03-07T06:51:04;48;45;
55518;PMS5003;41724;51.176;-0.708;2024-03-07T06:53:31;53;49;
55518;PMS5003;41724;51.176;-0.708;2024-03-07T06:55:58;46;40;
55518;PMS5003;41724;51.176;-0.708;2024-03-07T06:58:24;50;47;
55518;PMS5003;41724;51.176;-0.708;2024-03-07T07:00:52;46;42;
55518;PMS5003;41724;51.176;-0.708;2024-03-07T07:03:19;47;41;
55518;PMS5003;41724;51.176;-0.708;2024-03-07T07:05:46;49;45;
55518;PMS5003;41724;51.176;-0.708;2024-03-07T07:08:13;37;36;
55518;PMS5003;41724;51.176;-0.708;2024-03-07T07:10:40;40;40;
55518;PMS5003;41724;51.176;-0.708;2024-03-07T07:13:07;48;45;
55518;PMS5003;41724;51.176;-0.708;2024-03-07T07:15:35;49;42;
55518;PMS5003;41724;51.176;-0.708;2024-03-07T07:18:02;39;35;
55518;PMS5003;41724;51.176;-0.708;2024-03-07T07:20:30;50;44;
55518;PMS5003;41724;51.176;-0.708;2024-03-07T07:22:57;39;35;
55518;PMS5003;41724;51.176;-0.708;2024-03-07T07:25:24;36;34;
55518;PMS5003;41724;51.176;-0.708;2024-03-07T07:27:52;37;35;
55518;PMS5003;41724;51.176;-0.708;2024-03-07T07:30:20;56;47;
55518;PMS5003;41724;51.176;-0.708;2024-03-07T07:32:48;44;34;
55518;PMS5003;41724;51.176;-0.708;2024-03-07T07:35:16;33;29;
55518;PMS5003;41724;51.176;-0.708;2024-03-07T07:37:44;42;39;
55518;PMS5003;41724;51.176;-0.708;2024-03-07T07:40:13;31;31;
55518;PMS5003;41724;51.176;-0.708;2024-03-07T07:42:41;39;37;
55518;PMS5003;41724;51.176;-0.708;2024-03-07T07:45:09;41;38;
55518;PMS5003;41724;51.176;-0.708;2024-03-07T07:47:38;36;32;
55518;PMS5003;41724;51.176;-0.708;2024-03-07T07:50:06;33;31;
55518;PMS5003;41724;51.176;-0.708;2024-03-07T07:52:34;49;43;
55518;PMS5003;41724;51.176;-0.708;2024-03-07T07:55:02;40;36;
55518;PMS5003;41724;51.176;-0.708;2024-03-07T07:57:28;32;31;
55518;PMS5003;41724;51.176;-0.708;2024-03-07T07:59:55;38;36;
55518;PMS5003;41724;51.176;-0.708;2024-03-07T08:02:22;37;34;
55518;PMS5003;41724;51.176;-0.708;2024-03-07T08:04:49;37;37;
55518;PMS5003;41724;51.176;-0.708;2024-03-07T08:07:16;34;32;
55518;PMS5003;41724;51.176;-0.708;2024-03-07T08:09:43;43;41;
55518;PMS5003;41724;51.176;-0.708;2024-03-07T08:12:10;44;41;
55518;PMS5003;41724;51.176;-0.708;2024-03-07T08:14:37;38;35;
55518;PMS5003;41724;51.176;-0.708;2024-03-07T08:17:04;38;35;
55518;PMS5003;41724;51.176;-0.708;2024-03-07T08:19:31;39;35;
55518;PMS5003;41724;51.176;-0.708;2024-03-07T08:21:58;35;34;
55518;PMS5003;41724;51.176;-0.708;2024-03-07T08:24:26;47;43;
55518;PMS5003;41724;51.176;-0.708;2024-03-07T08:26:53;53;49;
55518;PMS5003;41724;51.176;-0.708;2024-03-07T08:29:20;51;46;
55518;PMS5003;41724;51.176;-0.708;2024-03-07T08:31:47;48;44;
55518;PMS5003;41724;51.176;-0.708;2024-03-07T08:34:14;56;49;
55518;PMS5003;41724;51.176;-0.708;2024-03-07T08:36:42;45;45;
55518;PMS5003;41724;51.176;-0.708;2024-03-07T08:39:09;55;52;
55518;PMS5003;41724;51.176;-0.708;2024-03-07T08:41:36;54;51;
55518;PMS5003;41724;51.176;-0.708;2024-03-07T08:44:03;55;50;
55518;PMS5003;41724;51.176;-0.708;2024-03-07T08:46:31;53;51;
55518;PMS5003;41724;51.176;-0.708;2024-03-07T08:48:58;53;48;
55518;PMS5003;41724;51.176;-0.708;2024-03-07T08:51:25;51;48;
55518;PMS5003;41724;51.176;-0.708;2024-03-07T08:53:52;56;52;
55518;PMS5003;41724;51.176;-0.708;2024-03-07T08:56:19;49;48;
55518;PMS5003;41724;51.176;-0.708;2024-03-07T08:58:46;47;44;
55518;PMS5003;41724;51.176;-0.708;2024-03-07T09:01:14;54;49;
55518;PMS5003;41724;51.176;-0.708;2024-03-07T09:03:41;56;52;
55518;PMS5003;41724;51.176;-0.708;2024-03-07T09:06:08;43;42;
55518;PMS5003;41724;51.176;-0.708;2024-03-07T09:08:35;55;51;
55518;PMS5003;41724;51.176;-0.708;2024-03-07T09:11:03;55;48;
55518;PMS5003;41724;51.176;-0.708;2024-03-07T09:13:30;56;51;
55518;PMS5003;41724;51.176;-0.708;2024-03-07T09:15:57;55;52;
55518;PMS5003;41724;51.176;-0.708;2024-03-07T09:18:24;55;50;
55518;PMS5003;41724;51.176;-0.708;2024-03-07T09:20:51;59;55;
55518;PMS5003;41724;51.176;-0.708;2024-03-07T09:23:18;54;49;
55518;PMS5003;41724;51.176;-0.708;2024-03-07T09:25:45;59;53;
55518;PMS5003;41724;51.176;-0.708;2024-03-07T09:28:12;49;48;
55518;PMS5003;41724;51.176;-0.708;2024-03-07T09:30:39;49;47;
55518;PMS5003;41724;51.176;-0.708;2024-03-07T09:33:06;55;49;
55518;PMS5003;41724;51.176;-0.708;2024-03-07T09:35:33;53;50;
55518;PMS5003;41724;51.176;-0.708;2024-03-07T09:38:00;53;48;
55518;PMS5003;41724;51.176;-0.708;2024-03-07T09:40:28;49;47;
55518;PMS5003;41724;51.176;-0.708;2024-03-07T09:42:55;58;52;
55518;PMS5003;41724;51.176;-0.708;2024-03-07T09:45:25;51;47;
55518;PMS5003;41724;51.176;-0.708;2024-03-07T09:47:56;53;49;
55518;PMS5003;41724;51.176;-0.708;2024-03-07T09:50:23;42;40;
55518;PMS5003;41724;51.176;-0.708;2024-03-07T09:52:52;48;45;
55518;PMS5003;41724;51.176;-0.708;2024-03-07T09:55:20;44;43;
55518;PMS5003;41724;51.176;-0.708;2024-03-07T09:57:47;49;44;
55518;PMS5003;41724;51.176;-0.708;2024-03-07T10:00:16;45;43;
55518;PMS5003;41724;51.176;-0.708;2024-03-07T10:02:44;39;38;
55518;PMS5003;41724;51.176;-0.708;2024-03-07T10:05:14;46;45;
55518;PMS5003;41724;51.176;-0.708;2024-03-07T10:07:43;42;40;
55518;PMS5003;41724;51.176;-0.708;2024-03-07T10:10:11;49;45;
55518;PMS5003;41724;51.176;-0.708;2024-03-07T10:12:38;37;36;
55518;PMS5003;41724;51.176;-0.708;2024-03-07T10:15:06;43;39;
55518;PMS5003;41724;51.176;-0.708;2024-03-07T10:17:33;40;38;
55518;PMS5003;41724;51.176;-0.708;2024-03-07T10:20:00;41;39;
55518;PMS5003;41724;51.176;-0.708;2024-03-07T10:22:27;46;44;
55518;PMS5003;41724;51.176;-0.708;2024-03-07T10:24:55;38;37;
55518;PMS5003;41724;51.176;-0.708;2024-03-07T10:27:22;45;43;
55518;PMS5003;41724;51.176;-0.708;2024-03-07T10:29:52;43;41;
55518;PMS5003;41724;51.176;-0.708;2024-03-07T10:32:19;45;44;
55518;PMS5003;41724;51.176;-0.708;2024-03-07T10:34:46;40;40;
55518;PMS5003;41724;51.176;-0.708;2024-03-07T10:37:14;47;45;
55518;PMS5003;41724;51.176;-0.708;2024-03-07T10:39:42;46;43;
55518;PMS5003;41724;51.176;-0.708;2024-03-07T10:42:12;47;46;
55518;PMS5003;41724;51.176;-0.708;2024-03-07T10:44:42;48;46;
55518;PMS5003;41724;51.176;-0.708;2024-03-07T10:47:11;47;46;
55518;PMS5003;41724;51.176;-0.708;2024-03-07T10:49:45;50;48;
55518;PMS5003;41724;51.176;-0.708;2024-03-07T10:52:28;57;53;
55518;PMS5003;41724;51.176;-0.708;2024-03-07T10:55:05;54;50;
55518;PMS5003;41724;51.176;-0.708;2024-03-07T10:57:42;55;52;
55518;PMS5003;41724;51.176;-0.708;2024-03-07T11:00:15;51;49;
55518;PMS5003;41724;51.176;-0.708;2024-03-07T11:02:43;55;54;
55518;PMS5003;41724;51.176;-0.708;2024-03-07T11:05:13;56;54;
55518;PMS5003;41724;51.176;-0.708;2024-03-07T11:07:42;60;57;
55518;PMS5003;41724;51.176;-0.708;2024-03-07T11:10:09;53;50;
55518;PMS5003;41724;51.176;-0.708;2024-03-07T11:12:37;60;56;
55518;PMS5003;41724;51.176;-0.708;2024-03-07T11:15:05;61;58;
55518;PMS5003;41724;51.176;-0.708;2024-03-07T11:17:34;66;57;
55518;PMS5003;41724;51.176;-0.708;2024-03-07T11:20:35;60;56;
55518;PMS5003;41724;51.176;-0.708;2024-03-07T11:23:24;69;63;
55518;PMS5003;41724;51.176;-0.708;2024-03-07T11:25:53;65;61;
55518;PMS5003;41724;51.176;-0.708;2024-03-07T11:28:27;67;60;
55518;PMS5003;41724;51.176;-0.708;2024-03-07T11:30:55;64;61;
55518;PMS5003;41724;51.176;-0.708;2024-03-07T11:33:34;69;67;
55518;PMS5003;41724;51.176;-0.708;2024-03-07T11:36:03;76;73;
55518;PMS5003;41724;51.176;-0.708;2024-03-07T11:38:31;72;67;
55518;PMS5003;41724;51.176;-0.708;2024-03-07T11:40:59;74;69;
55518;PMS5003;41724;51.176;-0.708;2024-03-07T11:43:27;79;72;
55518;PMS5003;41724;51.176;-0.708;2024-03-07T11:45:54;74;70;
55518;PMS5003;41724;51.176;-0.708;2024-03-07T11:48:21;86;83;
55518;PMS5003;41724;51.176;-0.708;2024-03-07T11:50:48;80;74;
55518;PMS5003;41724;51.176;-0.708;2024-03-07T11:53:15;74;73;
55518;PMS5003;41724;51.176;-0.708;2024-03-07T11:55:43;78;75;
55518;PMS5003;41724;51.176;-0.708;2024-03-07T11:58:11;83;78;
55518;PMS5003;41724;51.176;-0.708;2024-03-07T12:00:40;83;78;
55518;PMS5003;41724;51.176;-0.708;2024-03-07T12:03:07;76;75;
55518;PMS5003;41724;51.176;-0.708;2024-03-07T12:05:35;89;83;
55518;PMS5003;41724;51.176;-0.708;2024-03-07T12:08:02;84;79;
55518;PMS5003;41724;51.176;-0.708;2024-03-07T12:10:29;84;79;
55518;PMS5003;41724;51.176;-0.708;2024-03-07T12:12:56;84;79;
55518;PMS5003;41724;51.176;-0.708;2024-03-07T12:15:23;75;74;
55518;PMS5003;41724;51.176;-0.708;2024-03-07T12:17:50;82;78;
55518;PMS5003;41724;51.176;-0.708;2024-03-07T12:20:18;81;80;
55518;PMS5003;41724;51.176;-0.708;2024-03-07T12:22:46;85;82;
55518;PMS5003;41724;51.176;-0.708;2024-03-07T12:25:17;87;81;
55518;PMS5003;41724;51.176;-0.708;2024-03-07T12:27:46;83;80;
55518;PMS5003;41724;51.176;-0.708;2024-03-07T12:30:15;79;77;
55518;PMS5003;41724;51.176;-0.708;2024-03-07T12:32:46;91;88;
55518;PMS5003;41724;51.176;-0.708;2024-03-07T12:35:15;81;76;
55518;PMS5003;41724;51.176;-0.708;2024-03-07T12:37:42;88;83;
55518;PMS5003;41724;51.176;-0.708;2024-03-07T12:40:12;79;78;
55518;PMS5003;41724;51.176;-0.708;2024-03-07T12:42:39;83;78;
55518;PMS5003;41724;51.176;-0.708;2024-03-07T12:45:07;82;79;
55518;PMS5003;41724;51.176;-0.708;2024-03-07T12:47:36;84;80;
55518;PMS5003;41724;51.176;-0.708;2024-03-07T12:50:04;85;83;
55518;PMS5003;41724;51.176;-0.708;2024-03-07T12:52:32;81;80;
55518;PMS5003;41724;51.176;-0.708;2024-03-07T12:54:59;71;70;
55518;PMS5003;41724;51.176;-0.708;2024-03-07T12:57:26;86;83;
55518;PMS5003;41724;51.176;-0.708;2024-03-07T12:59:53;85;77;
55518;PMS5003;41724;51.176;-0.708;2024-03-07T13:02:20;84;82;
55518;PMS5003;41724;51.176;-0.708;2024-03-07T13:04:47;92;88;
55518;PMS5003;41724;51.176;-0.708;2024-03-07T13:07:14;94;89;
55518;PMS5003;41724;51.176;-0.708;2024-03-07T13:09:41;85;83;
55518;PMS5003;41724;51.176;-0.708;2024-03-07T13:12:08;89;86;
55518;PMS5003;41724;51.176;-0.708;2024-03-07T13:14:35;86;84;
55518;PMS5003;41724;51.176;-0.708;2024-03-07T13:17:02;81;78;
55518;PMS5003;41724;51.176;-0.708;2024-03-07T13:19:29;78;75;
55518;PMS5003;41724;51.176;-0.708;2024-03-07T13:21:57;81;79;
55518;PMS5003;41724;51.176;-0.708;2024-03-07T13:24:25;80;72;
55518;PMS5003;41724;51.176;-0.708;2024-03-07T13:26:53;77;73;
55518;PMS5003;41724;51.176;-0.708;2024-03-07T13:29:21;81;79;
55518;PMS5003;41724;51.176;-0.708;2024-03-07T13:31:48;77;75;
55518;PMS5003;41724;51.176;-0.708;2024-03-07T13:34:15;81;77;
55518;PMS5003;41724;51.176;-0.708;2024-03-07T13:36:42;79;77;
55518;PMS5003;41724;51.176;-0.708;2024-03-07T13:39:12;72;69;
55518;PMS5003;41724;51.176;-0.708;2024-03-07T13:41:39;75;73;
55518;PMS5003;41724;51.176;-0.708;2024-03-07T13:44:07;76;74;
55518;PMS5003;41724;51.176;-0.708;2024-03-07T13:46:34;81;78;
55518;PMS5003;41724;51.176;-0.708;2024-03-07T13:49:02;79;73;
55518;PMS5003;41724;51.176;-0.708;2024-03-07T13:51:29;66;62;
55518;PMS5003;41724;51.176;-0.708;2024-03-07T13:53:57;66;65;
55518;PMS5003;41724;51.176;-0.708;2024-03-07T13:56:30;73;70;
55518;PMS5003;41724;51.176;-0.708;2024-03-07T13:59:21;71;70;
55518;PMS5003;41724;51.176;-0.708;2024-03-07T14:02:01;71;68;
55518;PMS5003;41724;51.176;-0.708;2024-03-07T14:05:20;66;64;
55518;PMS5003;41724;51.176;-0.708;2024-03-07T14:08:07;65;63;
55518;PMS5003;41724;51.176;-0.708;2024-03-07T14:11:01;71;64;
55518;PMS5003;41724;51.176;-0.708;2024-03-07T14:13:47;68;66;
55518;PMS5003;41724;51.176;-0.708;2024-03-07T14:16:39;69;65;
55518;PMS5003;41724;51.176;-0.708;2024-03-07T14:19:26;72;64;
55518;PMS5003;41724;51.176;-0.708;2024-03-07T14:22:48;63;59;
55518;PMS5003;41724;51.176;-0.708;2024-03-07T14:25:37;68;67;
55518;PMS5003;41724;51.176;-0.708;2024-03-07T14:28:17;63;61;
55518;PMS5003;41724;51.176;-0.708;2024-03-07T14:31:14;67;64;
55518;PMS5003;41724;51.176;-0.708;2024-03-07T14:33:50;62;60;
55518;PMS5003;41724;51.176;-0.708;2024-03-07T14:36:32;64;64;
55518;PMS5003;41724;51.176;-0.708;2024-03-07T14:39:04;63;59;
55518;PMS5003;41724;51.176;-0.708;2024-03-07T14:41:42;63;61;
55518;PMS5003;41724;51.176;-0.708;2024-03-07T14:44:14;58;57;
55518;PMS5003;41724;51.176;-0.708;2024-03-07T14:46:42;58;56;
55518;PMS5003;41724;51.176;-0.708;2024-03-07T14:49:10;59;56;
55518;PMS5003;41724;51.176;-0.708;2024-03-07T14:51:41;57;56;
55518;PMS5003;41724;51.176;-0.708;2024-03-07T14:54:08;55;54;
55518;PMS5003;41724;51.176;-0.708;2024-03-07T14:56:35;44;44;
55518;PMS5003;41724;51.176;-0.708;2024-03-07T14:59:02;49;47;
55518;PMS5003;41724;51.176;-0.708;2024-03-07T15:01:29;47;46;
55518;PMS5003;41724;51.176;-0.708;2024-03-07T15:03:56;41;40;
55518;PMS5003;41724;51.176;-0.708;2024-03-07T15:06:24;38;36;
55518;PMS5003;41724;51.176;-0.708;2024-03-07T15:08:52;47;45;
55518;PMS5003;41724;51.176;-0.708;2024-03-07T15:11:21;43;42;
55518;PMS5003;41724;51.176;-0.708;2024-03-07T15:13:54;42;42;
55518;PMS5003;41724;51.176;-0.708;2024-03-07T15:16:21;43;42;
55518;PMS5003;41724;51.176;-0.708;2024-03-07T15:18:48;42;42;
55518;PMS5003;41724;51.176;-0.708;2024-03-07T15:21:15;46;44;
55518;PMS5003;41724;51.176;-0.708;2024-03-07T15:23:42;45;45;
55518;PMS5003;41724;51.176;-0.708;2024-03-07T15:26:10;42;42;
55518;PMS5003;41724;51.176;-0.708;2024-03-07T15:28:37;50;48;
55518;PMS5003;41724;51.176;-0.708;2024-03-07T15:31:04;42;41;
55518;PMS5003;41724;51.176;-0.708;2024-03-07T15:33:31;45;44;
55518;PMS5003;41724;51.176;-0.708;2024-03-07T15:35:59;44;42;
55518;PMS5003;41724;51.176;-0.708;2024-03-07T15:38:26;47;46;
55518;PMS5003;41724;51.176;-0.708;2024-03-07T15:40:58;48;46;
55518;PMS5003;41724;51.176;-0.708;2024-03-07T15:43:26;44;43;
55518;PMS5003;41724;51.176;-0.708;2024-03-07T15:45:53;49;48;
55518;PMS5003;41724;51.176;-0.708;2024-03-07T15:48:20;58;55;
55518;PMS5003;41724;51.176;-0.708;2024-03-07T15:50:47;55;51;
55518;PMS5003;41724;51.176;-0.708;2024-03-07T15:53:15;46;44;
55518;PMS5003;41724;51.176;-0.708;2024-03-07T15:55:42;47;47;
55518;PMS5003;41724;51.176;-0.708;2024-03-07T15:58:09;61;58;
55518;PMS5003;41724;51.176;-0.708;2024-03-07T16:00:36;55;55;
55518;PMS5003;41724;51.176;-0.708;2024-03-07T16:03:04;57;55;
55518;PMS5003;41724;51.176;-0.708;2024-03-07T16:05:32;61;58;
55518;PMS5003;41724;51.176;-0.708;2024-03-07T16:08:01;55;49;
55518;PMS5003;41724;51.176;-0.708;2024-03-07T16:10:30;65;63;
55518;PMS5003;41724;51.176;-0.708;2024-03-07T16:12:58;66;62;
55518;PMS5003;41724;51.176;-0.708;2024-03-07T16:15:26;61;55;
55518;PMS5003;41724;51.176;-0.708;2024-03-07T16:17:53;66;65;
55518;PMS5003;41724;51.176;-0.708;2024-03-07T16:20:21;60;59;
55518;PMS5003;41724;51.176;-0.708;2024-03-07T16:22:48;68;62;
55518;PMS5003;41724;51.176;-0.708;2024-03-07T16:25:16;75;70;
55518;PMS5003;41724;51.176;-0.708;2024-03-07T16:27:44;75;73;
55518;PMS5003;41724;51.176;-0.708;2024-03-07T16:30:12;68;65;
55518;PMS5003;41724;51.176;-0.708;2024-03-07T16:32:40;70;69;
55518;PMS5003;41724;51.176;-0.708;2024-03-07T16:35:08;55;54;